Time;durP1;ratioP1;P1;durP2;ratioP2;P2;SDS_P1;SDS_P2;PMS_P1;PMS_P2;Temp;Humidity;BMP_temperature;BMP_pressure;BME280_temperature;BME280_humidity;BME280_pressure;Samples;Min_cycle;Max_cycle;Signal;HPM_P1;HPM_P2
2023/05/07 00:01:02;;;;;;;34.97;22.85;;;;;;;;;;5071541;28;20419;-62
2023/05/07 00:03:28;;;;;;;37.53;24.92;;;;;;;;;;5068838;28;20035;-61
2023/05/07 00:05:54;;;;;;;38.47;24.80;;;;;;;;;;5071407;28;20051;-62
2023/05/07 00:08:20;;;;;;;34.45;24.52;;;;;;;;;;5065611;28;20071;-62
2023/05/07 00:10:46;;;;;;;34.55;23.08;;;;;;;;;;5056614;28;20392;-62
2023/05/07 00:13:11;;;;;;;36.15;23.85;;;;;;;;;;5068415;28;20024;-62
2023/05/07 00:15:37;;;;;;;35.75;22.25;;;;;;;;;;5057557;28;20036;-62
2023/05/07 00:18:02;;;;;;;37.75;22.05;;;;;;;;;;5066884;28;20038;-62
2023/05/07 00:20:28;;;;;;;33.33;22.45;;;;;;;;;;5056192;28;20031;-62
2023/05/07 00:22:53;;;;;;;36.80;23.95;;;;;;;;;;5052360;28;20029;-62
2023/05/07 00:25:19;;;;;;;36.47;23.17;;;;;;;;;;5055512;28;20029;-62
2023/05/07 00:27:45;;;;;;;35.03;23.95;;;;;;;;;;5069083;28;20112;-61
2023/05/07 00:30:11;;;;;;;37.75;24.00;;;;;;;;;;5054698;28;20033;-61
2023/05/07 00:32:36;;;;;;;37.47;23.88;;;;;;;;;;5049536;28;20476;-62
2023/05/07 00:35:03;;;;;;;37.08;24.00;;;;;;;;;;5069539;28;20032;-61
2023/05/07 00:37:28;;;;;;;34.03;23.80;;;;;;;;;;5069383;28;20048;-61
2023/05/07 00:39:54;;;;;;;35.55;23.60;;;;;;;;;;5071254;28;20037;-62
2023/05/07 00:42:19;;;;;;;33.78;23.10;;;;;;;;;;5057520;28;20108;-61
2023/05/07 00:44:45;;;;;;;35.47;23.20;;;;;;;;;;5065954;28;20481;-61
2023/05/07 00:47:11;;;;;;;34.75;23.67;;;;;;;;;;5053835;28;20059;-61
2023/05/07 00:49:42;;;;;;;36.85;24.35;;;;;;;;;;5056059;28;20036;-61
2023/05/07 00:52:10;;;;;;;41.22;24.80;;;;;;;;;;5055500;28;20146;-61
2023/05/07 00:54:36;;;;;;;36.70;25.35;;;;;;;;;;5060610;28;20060;-61
2023/05/07 00:57:03;;;;;;;37.58;26.13;;;;;;;;;;5068393;28;20075;-61
2023/05/07 00:59:29;;;;;;;38.17;26.98;;;;;;;;;;5065239;28;20529;-61
2023/05/07 01:01:55;;;;;;;41.25;27.02;;;;;;;;;;5059340;28;20020;-61
2023/05/07 01:04:20;;;;;;;40.08;27.48;;;;;;;;;;5052191;28;20025;-61
2023/05/07 01:06:46;;;;;;;43.78;27.08;;;;;;;;;;5067793;28;20032;-62
2023/05/07 01:09:12;;;;;;;39.25;27.10;;;;;;;;;;5060684;28;20470;-62
2023/05/07 01:11:38;;;;;;;42.90;28.55;;;;;;;;;;5073349;28;20890;-61
2023/05/07 01:14:04;;;;;;;42.08;27.08;;;;;;;;;;5066731;28;20104;-61
2023/05/07 01:16:29;;;;;;;40.47;26.13;;;;;;;;;;5057759;28;20042;-61
2023/05/07 01:18:55;;;;;;;40.83;27.88;;;;;;;;;;5060567;28;20052;-62
2023/05/07 01:21:30;;;;;;;42.97;27.50;;;;;;;;;;5053156;28;20067;-61
2023/05/07 01:23:56;;;;;;;38.35;26.67;;;;;;;;;;5070947;28;20434;-62
2023/05/07 01:26:23;;;;;;;38.85;26.60;;;;;;;;;;5067512;28;20036;-62
2023/05/07 01:28:49;;;;;;;40.88;27.80;;;;;;;;;;5062697;28;20039;-62
2023/05/07 01:31:17;;;;;;;43.40;27.60;;;;;;;;;;5069265;28;20416;-62
2023/05/07 01:33:44;;;;;;;42.60;26.83;;;;;;;;;;5069304;28;20035;-62
2023/05/07 01:36:11;;;;;;;40.72;27.15;;;;;;;;;;5070314;28;20024;-61
2023/05/07 01:38:38;;;;;;;42.90;27.52;;;;;;;;;;5066084;28;20045;-61
2023/05/07 01:41:03;;;;;;;41.15;27.08;;;;;;;;;;5053479;28;20048;-61
2023/05/07 01:43:30;;;;;;;39.15;25.55;;;;;;;;;;5055370;28;20097;-62
2023/05/07 01:45:57;;;;;;;38.58;24.70;;;;;;;;;;5054910;28;20036;-61
2023/05/07 01:48:24;;;;;;;40.38;26.20;;;;;;;;;;5052429;28;20494;-62
2023/05/07 01:50:50;;;;;;;36.78;24.70;;;;;;;;;;5064225;28;20061;-61
2023/05/07 01:53:16;;;;;;;41.38;24.90;;;;;;;;;;5054934;28;20094;-61
2023/05/07 01:55:41;;;;;;;37.15;25.38;;;;;;;;;;5056000;28;20449;-61
2023/05/07 01:58:07;;;;;;;36.53;24.70;;;;;;;;;;5052563;28;20035;-62
2023/05/07 02:00:32;;;;;;;39.80;25.17;;;;;;;;;;5072008;28;20089;-61
2023/05/07 02:02:58;;;;;;;37.65;24.77;;;;;;;;;;5066903;28;20031;-61
2023/05/07 02:05:24;;;;;;;34.97;23.80;;;;;;;;;;5052088;28;20148;-62
2023/05/07 02:07:49;;;;;;;35.75;25.15;;;;;;;;;;5061763;28;20064;-61
2023/05/07 02:10:14;;;;;;;37.63;24.77;;;;;;;;;;5056370;28;20025;-61
2023/05/07 02:12:40;;;;;;;42.10;25.10;;;;;;;;;;5057317;28;20032;-61
2023/05/07 02:15:06;;;;;;;36.58;24.88;;;;;;;;;;5053073;28;20078;-61
2023/05/07 02:17:32;;;;;;;44.78;25.63;;;;;;;;;;5061018;28;20513;-61
2023/05/07 02:19:58;;;;;;;37.55;24.15;;;;;;;;;;5051949;28;20146;-62
2023/05/07 02:22:23;;;;;;;39.92;25.58;;;;;;;;;;5052078;28;20048;-61
2023/05/07 02:24:49;;;;;;;35.70;24.33;;;;;;;;;;5055611;28;20032;-61
2023/05/07 02:27:14;;;;;;;37.70;24.83;;;;;;;;;;5067436;28;20028;-62
2023/05/07 02:29:40;;;;;;;36.40;24.85;;;;;;;;;;5071142;28;20087;-61
2023/05/07 02:32:05;;;;;;;38.35;25.60;;;;;;;;;;5071918;28;20377;-61
2023/05/07 02:34:31;;;;;;;36.30;24.85;;;;;;;;;;5070706;28;20457;-62
2023/05/07 02:36:56;;;;;;;36.25;24.35;;;;;;;;;;5070671;28;20053;-61
2023/05/07 02:39:22;;;;;;;34.95;24.13;;;;;;;;;;5061274;28;20040;-61
2023/05/07 02:41:47;;;;;;;38.42;25.90;;;;;;;;;;5050956;28;20106;-61
2023/05/07 02:44:12;;;;;;;39.05;25.50;;;;;;;;;;5050183;28;20029;-61
2023/05/07 02:46:38;;;;;;;37.35;25.42;;;;;;;;;;5052280;28;20028;-61
2023/05/07 02:49:03;;;;;;;39.67;25.23;;;;;;;;;;5052057;28;20507;-61
2023/05/07 02:51:30;;;;;;;39.08;24.30;;;;;;;;;;5052983;28;20036;-61
2023/05/07 02:53:56;;;;;;;36.72;25.67;;;;;;;;;;5072358;28;20109;-61
2023/05/07 02:56:21;;;;;;;36.53;24.85;;;;;;;;;;5056987;28;20115;-61
2023/05/07 02:58:47;;;;;;;40.13;26.33;;;;;;;;;;5046732;28;20033;-61
2023/05/07 03:01:13;;;;;;;38.08;24.60;;;;;;;;;;5053637;28;20393;-62
2023/05/07 03:03:39;;;;;;;35.35;24.35;;;;;;;;;;5056846;28;20133;-62
2023/05/07 03:06:05;;;;;;;36.10;24.40;;;;;;;;;;5058800;28;20493;-61
2023/05/07 03:08:30;;;;;;;35.33;24.25;;;;;;;;;;5070462;28;20029;-61
2023/05/07 03:10:56;;;;;;;35.00;24.15;;;;;;;;;;5059842;28;20033;-61
2023/05/07 03:13:21;;;;;;;38.63;23.92;;;;;;;;;;5070758;28;20028;-61
2023/05/07 03:15:47;;;;;;;35.10;24.00;;;;;;;;;;5054522;28;20116;-61
2023/05/07 03:18:12;;;;;;;37.10;24.67;;;;;;;;;;5047128;28;20388;-61
2023/05/07 03:20:37;;;;;;;34.42;24.45;;;;;;;;;;5051114;28;20137;-61
2023/05/07 03:23:03;;;;;;;35.70;24.80;;;;;;;;;;5070559;28;20465;-61
2023/05/07 03:25:29;;;;;;;38.20;25.10;;;;;;;;;;5048824;28;20031;-61
2023/05/07 03:27:56;;;;;;;41.17;24.00;;;;;;;;;;5051032;28;20389;-62
2023/05/07 03:30:21;;;;;;;35.88;24.25;;;;;;;;;;5050361;28;20059;-62
2023/05/07 03:32:46;;;;;;;31.40;22.27;;;;;;;;;;5057671;28;20068;-61
2023/05/07 03:35:12;;;;;;;36.25;23.38;;;;;;;;;;5069374;28;20388;-61
2023/05/07 03:37:38;;;;;;;35.53;24.48;;;;;;;;;;5070760;28;20477;-61
2023/05/07 03:40:05;;;;;;;36.38;23.38;;;;;;;;;;5064376;28;20457;-62
2023/05/07 03:42:30;;;;;;;32.72;23.00;;;;;;;;;;5049210;28;20385;-61
2023/05/07 03:44:55;;;;;;;36.28;24.20;;;;;;;;;;5054751;28;20051;-61
2023/05/07 03:47:21;;;;;;;35.70;24.90;;;;;;;;;;5054163;28;20047;-61
2023/05/07 03:49:47;;;;;;;33.92;23.15;;;;;;;;;;5050112;28;20037;-62
2023/05/07 03:52:13;;;;;;;33.92;23.67;;;;;;;;;;5053188;28;20470;-61
2023/05/07 03:54:38;;;;;;;35.67;24.13;;;;;;;;;;5067772;28;20060;-62
2023/05/07 03:57:04;;;;;;;32.33;22.30;;;;;;;;;;5069472;28;20461;-61
2023/05/07 03:59:29;;;;;;;32.85;22.83;;;;;;;;;;5050941;28;20066;-61
2023/05/07 04:01:55;;;;;;;31.85;23.38;;;;;;;;;;5056480;28;20082;-61
2023/05/07 04:04:21;;;;;;;34.55;23.10;;;;;;;;;;5055214;28;20436;-61
2023/05/07 04:06:46;;;;;;;34.28;23.75;;;;;;;;;;5051251;28;20029;-62
2023/05/07 04:09:11;;;;;;;32.17;22.63;;;;;;;;;;5054664;28;20479;-61
2023/05/07 04:11:37;;;;;;;33.45;22.60;;;;;;;;;;5050795;28;20029;-61
2023/05/07 04:14:02;;;;;;;32.65;22.95;;;;;;;;;;5053294;28;20033;-61
2023/05/07 04:16:28;;;;;;;33.55;23.42;;;;;;;;;;5064264;28;20166;-61
2023/05/07 04:18:53;;;;;;;34.78;24.05;;;;;;;;;;5065019;28;20158;-61
2023/05/07 04:21:20;;;;;;;31.65;22.27;;;;;;;;;;5056499;28;20043;-61
2023/05/07 04:23:46;;;;;;;32.38;22.27;;;;;;;;;;5062006;28;20651;-62
2023/05/07 04:26:12;;;;;;;33.17;22.60;;;;;;;;;;5057230;28;20033;-62
2023/05/07 04:28:39;;;;;;;33.22;22.58;;;;;;;;;;5051210;28;20378;-62
2023/05/07 04:31:04;;;;;;;33.47;22.05;;;;;;;;;;5057672;28;20116;-61
2023/05/07 04:33:30;;;;;;;33.97;23.45;;;;;;;;;;5063959;28;20131;-61
2023/05/07 04:35:55;;;;;;;31.35;21.55;;;;;;;;;;5068073;28;20029;-61
2023/05/07 04:38:21;;;;;;;29.67;21.73;;;;;;;;;;5066827;28;20057;-61
2023/05/07 04:40:46;;;;;;;30.58;21.15;;;;;;;;;;5073897;28;20029;-61
2023/05/07 04:43:13;;;;;;;29.42;20.65;;;;;;;;;;5075146;28;20067;-61
2023/05/07 04:45:41;;;;;;;27.80;20.13;;;;;;;;;;5072629;28;20469;-61
2023/05/07 04:48:06;;;;;;;29.23;20.17;;;;;;;;;;5062923;28;20119;-61
2023/05/07 04:50:32;;;;;;;30.45;21.60;;;;;;;;;;5058431;28;20121;-61
2023/05/07 04:52:57;;;;;;;28.90;20.25;;;;;;;;;;5057341;28;20044;-61
2023/05/07 04:55:22;;;;;;;29.08;20.13;;;;;;;;;;5054458;28;20033;-61
2023/05/07 04:57:48;;;;;;;26.08;19.45;;;;;;;;;;5056031;28;20044;-62
2023/05/07 05:00:19;;;;;;;28.20;19.73;;;;;;;;;;5054720;28;20021;-61
2023/05/07 05:02:44;;;;;;;28.98;19.17;;;;;;;;;;5071293;28;20037;-61
2023/05/07 05:05:10;;;;;;;25.63;18.83;;;;;;;;;;5057213;28;20485;-61
2023/05/07 05:07:35;;;;;;;27.38;18.55;;;;;;;;;;5057895;28;20033;-62
2023/05/07 05:10:02;;;;;;;25.63;17.73;;;;;;;;;;5068591;28;20028;-61
2023/05/07 05:12:29;;;;;;;28.67;18.38;;;;;;;;;;5074624;28;20031;-61
2023/05/07 05:14:54;;;;;;;25.63;17.58;;;;;;;;;;5074023;28;20056;-61
2023/05/07 05:17:20;;;;;;;28.48;17.90;;;;;;;;;;5081139;28;20154;-61
2023/05/07 05:19:45;;;;;;;26.88;17.13;;;;;;;;;;5072680;28;20029;-61
2023/05/07 05:22:10;;;;;;;27.20;18.02;;;;;;;;;;5073620;28;20381;-61
2023/05/07 05:24:36;;;;;;;24.15;16.95;;;;;;;;;;5063439;28;20044;-61
2023/05/07 05:27:01;;;;;;;26.13;16.98;;;;;;;;;;5077492;28;20140;-61
2023/05/07 05:29:27;;;;;;;25.30;17.00;;;;;;;;;;5058128;28;20048;-62
2023/05/07 05:31:52;;;;;;;23.02;17.15;;;;;;;;;;5051980;28;20824;-61
2023/05/07 05:34:19;;;;;;;25.63;17.77;;;;;;;;;;5054150;28;20025;-61
2023/05/07 05:36:45;;;;;;;28.35;16.98;;;;;;;;;;5053476;28;20444;-61
2023/05/07 05:39:10;;;;;;;24.15;17.00;;;;;;;;;;5086260;28;20052;-64
2023/05/07 05:41:36;;;;;;;26.92;17.50;;;;;;;;;;5052741;28;20048;-65
2023/05/07 05:44:01;;;;;;;25.67;16.83;;;;;;;;;;5054798;28;20032;-65
2023/05/07 05:46:26;;;;;;;25.60;16.75;;;;;;;;;;5060008;28;20031;-66
2023/05/07 05:48:52;;;;;;;23.40;16.52;;;;;;;;;;5055101;28;20646;-66
2023/05/07 05:51:17;;;;;;;26.17;17.08;;;;;;;;;;5053222;28;20040;-64
2023/05/07 05:53:43;;;;;;;23.45;16.33;;;;;;;;;;5071609;28;20033;-65
2023/05/07 05:56:08;;;;;;;23.65;16.17;;;;;;;;;;5073754;28;20035;-66
2023/05/07 05:58:34;;;;;;;25.77;17.02;;;;;;;;;;5070964;28;20560;-63
2023/05/07 06:00:59;;;;;;;27.70;17.00;;;;;;;;;;5073138;28;20032;-63
2023/05/07 06:03:25;;;;;;;23.23;16.67;;;;;;;;;;5068411;28;20497;-66
2023/05/07 06:05:51;;;;;;;24.88;16.10;;;;;;;;;;5052609;28;20102;-63
2023/05/07 06:08:17;;;;;;;26.27;16.13;;;;;;;;;;5060876;28;20036;-65
2023/05/07 06:10:42;;;;;;;22.50;16.13;;;;;;;;;;5071963;28;20103;-64
2023/05/07 06:13:07;;;;;;;22.60;15.63;;;;;;;;;;5073439;28;20163;-64
2023/05/07 06:15:33;;;;;;;22.95;15.20;;;;;;;;;;5073063;28;20032;-63
2023/05/07 06:17:58;;;;;;;20.52;14.55;;;;;;;;;;5072309;28;20029;-64
2023/05/07 06:20:23;;;;;;;20.30;14.27;;;;;;;;;;5071421;28;20029;-64
2023/05/07 06:22:49;;;;;;;17.67;13.20;;;;;;;;;;5071146;28;20346;-64
2023/05/07 06:25:14;;;;;;;18.17;12.77;;;;;;;;;;5073451;28;20033;-64
2023/05/07 06:27:40;;;;;;;16.17;12.05;;;;;;;;;;5070624;28;20112;-64
2023/05/07 06:30:06;;;;;;;15.70;11.35;;;;;;;;;;5081268;28;20063;-64
2023/05/07 06:32:32;;;;;;;16.30;11.32;;;;;;;;;;5093324;28;20039;-63
2023/05/07 06:34:57;;;;;;;17.00;11.38;;;;;;;;;;5080027;28;20384;-64
2023/05/07 06:37:23;;;;;;;19.67;11.32;;;;;;;;;;5052863;28;20056;-64
2023/05/07 06:39:48;;;;;;;15.20;11.07;;;;;;;;;;5065377;28;20438;-64
2023/05/07 06:42:13;;;;;;;16.63;11.32;;;;;;;;;;5072631;28;20029;-65
2023/05/07 06:44:39;;;;;;;16.40;11.43;;;;;;;;;;5072339;28;20028;-62
2023/05/07 06:47:05;;;;;;;18.88;11.75;;;;;;;;;;5052790;28;20024;-64
2023/05/07 06:49:31;;;;;;;17.05;12.07;;;;;;;;;;5052323;28;20090;-65
2023/05/07 06:51:56;;;;;;;17.13;11.40;;;;;;;;;;5051801;28;20029;-65
2023/05/07 06:54:22;;;;;;;18.35;11.32;;;;;;;;;;5054080;28;20029;-65
2023/05/07 06:56:47;;;;;;;17.60;10.90;;;;;;;;;;5079785;28;20028;-64
2023/05/07 06:59:13;;;;;;;14.95;11.07;;;;;;;;;;5072330;28;20024;-64
2023/05/07 07:01:38;;;;;;;15.95;11.02;;;;;;;;;;5070940;28;20078;-62
2023/05/07 07:04:04;;;;;;;20.20;11.60;;;;;;;;;;5072134;28;20033;-65
2023/05/07 07:06:31;;;;;;;16.70;11.30;;;;;;;;;;5072461;28;20036;-64
2023/05/07 07:08:57;;;;;;;15.88;10.82;;;;;;;;;;5071186;28;20644;-65
2023/05/07 07:11:22;;;;;;;16.88;10.88;;;;;;;;;;5072309;28;20034;-65
2023/05/07 07:13:48;;;;;;;13.65;10.27;;;;;;;;;;5071278;28;20086;-64
2023/05/07 07:16:13;;;;;;;16.38;10.93;;;;;;;;;;5072015;28;20124;-64
2023/05/07 07:18:38;;;;;;;16.55;10.80;;;;;;;;;;5070933;28;20033;-63
2023/05/07 07:21:04;;;;;;;15.90;10.57;;;;;;;;;;5071633;28;20040;-64
2023/05/07 07:23:29;;;;;;;16.23;10.32;;;;;;;;;;5072534;28;20460;-64
2023/05/07 07:25:55;;;;;;;16.70;10.63;;;;;;;;;;5065346;28;20442;-64
2023/05/07 07:28:21;;;;;;;18.58;11.65;;;;;;;;;;5072183;28;20116;-64
2023/05/07 07:30:46;;;;;;;17.50;10.95;;;;;;;;;;5071124;28;20025;-64
2023/05/07 07:33:12;;;;;;;15.27;10.77;;;;;;;;;;5071963;28;20440;-64
2023/05/07 07:35:37;;;;;;;16.10;10.85;;;;;;;;;;5069473;28;20461;-63
2023/05/07 07:38:03;;;;;;;16.48;10.93;;;;;;;;;;5070994;28;20084;-64
2023/05/07 07:40:29;;;;;;;14.60;10.32;;;;;;;;;;5071777;28;20440;-65
2023/05/07 07:42:54;;;;;;;17.48;11.05;;;;;;;;;;5071105;28;20036;-64
2023/05/07 07:45:20;;;;;;;17.85;11.38;;;;;;;;;;5071376;28;20473;-65
2023/05/07 07:47:46;;;;;;;17.77;11.23;;;;;;;;;;5069833;28;20024;-64
2023/05/07 07:50:11;;;;;;;15.88;11.82;;;;;;;;;;5071826;28;20029;-64
2023/05/07 07:52:37;;;;;;;17.90;12.38;;;;;;;;;;5062002;28;20064;-64
2023/05/07 07:55:03;;;;;;;16.40;11.48;;;;;;;;;;5062302;28;20119;-64
2023/05/07 07:57:28;;;;;;;14.50;10.90;;;;;;;;;;5071561;28;20029;-64
2023/05/07 07:59:54;;;;;;;15.18;10.90;;;;;;;;;;5070650;28;20033;-64
2023/05/07 08:02:19;;;;;;;16.45;11.20;;;;;;;;;;5069723;28;20051;-65
2023/05/07 08:04:45;;;;;;;16.35;10.75;;;;;;;;;;5072354;28;20028;-63
2023/05/07 08:07:10;;;;;;;14.00;10.60;;;;;;;;;;5090535;28;20381;-64
2023/05/07 08:09:40;;;;;;;15.70;11.07;;;;;;;;;;5053683;28;20095;-64
2023/05/07 08:12:06;;;;;;;17.10;11.45;;;;;;;;;;5051174;28;20037;-64
2023/05/07 08:14:33;;;;;;;15.85;11.48;;;;;;;;;;5059556;28;20074;-64
2023/05/07 08:16:58;;;;;;;16.25;11.77;;;;;;;;;;5064651;28;20029;-64
2023/05/07 08:19:24;;;;;;;15.55;10.77;;;;;;;;;;5091380;28;20112;-64
2023/05/07 08:21:50;;;;;;;15.40;11.32;;;;;;;;;;5066699;28;20032;-63
2023/05/07 08:24:16;;;;;;;14.85;10.90;;;;;;;;;;5071431;28;20036;-64
2023/05/07 08:26:41;;;;;;;14.85;10.70;;;;;;;;;;5068166;28;20032;-63
2023/05/07 08:29:07;;;;;;;14.52;10.77;;;;;;;;;;5068619;28;20111;-63
2023/05/07 08:31:33;;;;;;;17.83;10.75;;;;;;;;;;5078698;28;20062;-64
2023/05/07 08:33:59;;;;;;;12.88;10.10;;;;;;;;;;5076382;28;20059;-64
2023/05/07 08:36:25;;;;;;;13.13;10.05;;;;;;;;;;5088664;28;20124;-63
2023/05/07 08:38:51;;;;;;;14.25;10.25;;;;;;;;;;5057048;28;20087;-64
2023/05/07 08:41:17;;;;;;;14.00;10.90;;;;;;;;;;5050127;28;20474;-64
2023/05/07 08:43:49;;;;;;;15.32;10.38;;;;;;;;;;5069992;28;20064;-63
2023/05/07 08:46:20;;;;;;;13.05;10.30;;;;;;;;;;5069259;28;20451;-65
2023/05/07 08:48:49;;;;;;;14.70;10.70;;;;;;;;;;5070083;28;20032;-63
2023/05/07 08:51:20;;;;;;;15.77;10.68;;;;;;;;;;5071008;28;20032;-64
2023/05/07 08:53:48;;;;;;;;;;;;;;;;;;5070602;28;20039;-63
2023/05/07 08:56:15;;;;;;;15.73;10.23;;;;;;;;;;5071067;28;19908;-64
2023/05/07 08:58:42;;;;;;;13.50;10.45;;;;;;;;;;5073668;28;20029;-64
2023/05/07 09:01:10;;;;;;;13.68;10.60;;;;;;;;;;5067621;28;20036;-64
2023/05/07 09:03:37;;;;;;;14.90;10.93;;;;;;;;;;5071837;28;20076;-64
2023/05/07 09:06:03;;;;;;;12.95;10.35;;;;;;;;;;5073834;28;20120;-64
2023/05/07 09:08:29;;;;;;;12.73;10.52;;;;;;;;;;5074722;28;20112;-65
2023/05/07 09:10:54;;;;;;;14.05;10.43;;;;;;;;;;5073895;28;20477;-64
2023/05/07 09:13:20;;;;;;;15.02;9.98;;;;;;;;;;5074661;28;20177;-64
2023/05/07 09:15:45;;;;;;;13.68;10.70;;;;;;;;;;5070835;28;20033;-63
2023/05/07 09:18:12;;;;;;;13.55;10.70;;;;;;;;;;5074221;28;20036;-64
2023/05/07 09:20:38;;;;;;;14.50;10.65;;;;;;;;;;5073374;28;20032;-65
2023/05/07 09:23:03;;;;;;;13.32;10.80;;;;;;;;;;5073764;28;20276;-64
2023/05/07 09:25:30;;;;;;;13.95;11.23;;;;;;;;;;5074169;28;20032;-64
2023/05/07 09:27:55;;;;;;;13.23;11.13;;;;;;;;;;5073716;28;20044;-64
2023/05/07 09:30:21;;;;;;;13.38;10.90;;;;;;;;;;5074253;28;20031;-64
2023/05/07 09:32:46;;;;;;;13.25;11.20;;;;;;;;;;5062822;28;20029;-63
2023/05/07 09:35:17;;;;;;;14.13;10.60;;;;;;;;;;5053440;28;20028;-64
2023/05/07 09:37:43;;;;;;;14.60;10.80;;;;;;;;;;5054067;28;20099;-64
2023/05/07 09:40:24;;;;;;;15.18;10.20;;;;;;;;;;5053189;28;20444;-65
2023/05/07 09:42:50;;;;;;;11.00;9.52;;;;;;;;;;5052074;28;20393;-63
2023/05/07 09:45:36;;;;;;;11.52;9.80;;;;;;;;;;5053886;28;20120;-64
2023/05/07 09:48:05;;;;;;;13.85;9.68;;;;;;;;;;5052436;28;20045;-64
2023/05/07 09:50:45;;;;;;;13.52;9.60;;;;;;;;;;5061013;28;20139;-65
2023/05/07 09:53:11;;;;;;;20.33;11.00;;;;;;;;;;5059316;28;20108;-64
2023/05/07 09:55:37;;;;;;;14.00;10.98;;;;;;;;;;5053670;28;20052;-64
2023/05/07 09:58:05;;;;;;;13.88;10.82;;;;;;;;;;5052545;28;20033;-64
2023/05/07 10:00:31;;;;;;;11.55;9.55;;;;;;;;;;5053447;28;20035;-64
2023/05/07 10:02:58;;;;;;;15.10;10.70;;;;;;;;;;5053646;28;20397;-64
2023/05/07 10:05:25;;;;;;;12.60;9.95;;;;;;;;;;5072209;28;20036;-64
2023/05/07 10:07:50;;;;;;;12.85;9.75;;;;;;;;;;5071405;28;20219;-63
2023/05/07 10:10:17;;;;;;;14.85;10.30;;;;;;;;;;5071876;28;20119;-65
2023/05/07 10:12:43;;;;;;;14.20;10.77;;;;;;;;;;5073679;28;20165;-64
2023/05/07 10:15:10;;;;;;;13.32;9.85;;;;;;;;;;5067042;28;20540;-64
2023/05/07 10:17:39;;;;;;;11.35;9.23;;;;;;;;;;5053250;28;20037;-65
2023/05/07 10:20:06;;;;;;;13.15;9.10;;;;;;;;;;5051892;28;20029;-64
2023/05/07 10:22:38;;;;;;;13.35;10.10;;;;;;;;;;5053012;28;20032;-64
2023/05/07 10:25:08;;;;;;;11.75;9.50;;;;;;;;;;5051347;28;20059;-63
2023/05/07 10:27:36;;;;;;;11.02;9.27;;;;;;;;;;5053433;28;20037;-64
2023/05/07 10:30:31;;;;;;;11.60;8.82;;;;;;;;;;5050947;28;20124;-64
2023/05/07 10:33:05;;;;;;;15.43;9.10;;;;;;;;;;5052437;28;20082;-64
2023/05/07 10:35:35;;;;;;;11.65;8.60;;;;;;;;;;5053011;28;20036;-64
2023/05/07 10:38:02;;;;;;;12.27;8.10;;;;;;;;;;5051928;28;20382;-64
2023/05/07 10:40:27;;;;;;;11.02;8.40;;;;;;;;;;5052523;28;20048;-64
2023/05/07 10:43:00;;;;;;;12.05;8.75;;;;;;;;;;5051555;28;20029;-63
2023/05/07 10:45:26;;;;;;;10.32;7.78;;;;;;;;;;5052565;28;20032;-64
2023/05/07 10:48:14;;;;;;;13.13;8.07;;;;;;;;;;5052240;28;20051;-62
2023/05/07 10:50:45;;;;;;;11.48;7.65;;;;;;;;;;5052778;28;20047;-64
2023/05/07 10:53:24;;;;;;;12.75;8.95;;;;;;;;;;5051900;28;20448;-64
2023/05/07 10:55:54;;;;;;;12.50;9.63;;;;;;;;;;5052131;28;20036;-63
2023/05/07 10:58:29;;;;;;;11.98;9.23;;;;;;;;;;5055992;28;20424;-64
2023/05/07 11:00:59;;;;;;;14.63;9.75;;;;;;;;;;5071591;28;20071;-64
2023/05/07 11:03:26;;;;;;;11.63;9.27;;;;;;;;;;5071091;28;20495;-67
2023/05/07 11:06:10;;;;;;;11.38;7.75;;;;;;;;;;5071814;28;20038;-64
2023/05/07 11:08:56;;;;;;;11.15;7.90;;;;;;;;;;5072396;28;20032;-66
2023/05/07 11:12:00;;;;;;;10.10;7.60;;;;;;;;;;5068497;28;20025;-67
2023/05/07 11:14:54;;;;;;;10.65;8.07;;;;;;;;;;5009501;28;20042;-66
2023/05/07 11:17:20;;;;;;;11.75;8.55;;;;;;;;;;4993691;28;20042;-66
2023/05/07 11:19:52;;;;;;;12.02;8.63;;;;;;;;;;5010869;28;20096;-66
2023/05/07 11:22:33;;;;;;;9.05;6.32;;;;;;;;;;5010437;28;20463;-65
2023/05/07 11:25:03;;;;;;;8.60;6.20;;;;;;;;;;5009584;28;20537;-65
2023/05/07 11:27:29;;;;;;;8.80;5.93;;;;;;;;;;5006026;28;20034;-64
2023/05/07 11:29:55;;;;;;;9.73;6.03;;;;;;;;;;4990652;28;20550;-64
2023/05/07 11:32:27;;;;;;;8.93;6.85;;;;;;;;;;4990825;28;20066;-66
2023/05/07 11:34:54;;;;;;;8.00;6.32;;;;;;;;;;4991805;28;20040;-64
2023/05/07 11:37:21;;;;;;;9.95;5.95;;;;;;;;;;4975055;28;20046;-65
2023/05/07 11:39:47;;;;;;;8.65;6.28;;;;;;;;;;4991233;28;20483;-64
2023/05/07 11:42:33;;;;;;;9.38;6.95;;;;;;;;;;5006612;28;20467;-66
2023/05/07 11:45:00;;;;;;;8.63;6.32;;;;;;;;;;5026934;28;20521;-65
2023/05/07 11:47:25;;;;;;;10.15;7.18;;;;;;;;;;5052871;28;20039;-65
2023/05/07 11:49:53;;;;;;;8.13;6.75;;;;;;;;;;5051218;28;20045;-65
2023/05/07 11:52:20;;;;;;;10.73;7.53;;;;;;;;;;5051943;28;20029;-65
2023/05/07 11:55:04;;;;;;;9.68;7.63;;;;;;;;;;5050889;28;20056;-66
2023/05/07 11:57:29;;;;;;;10.25;7.50;;;;;;;;;;5060225;28;20116;-66
2023/05/07 11:59:58;;;;;;;9.00;5.93;;;;;;;;;;5069775;28;20123;-63
2023/05/07 12:02:24;;;;;;;8.27;6.97;;;;;;;;;;5073065;28;20029;-66
2023/05/07 12:04:50;;;;;;;8.63;7.40;;;;;;;;;;5074014;28;20461;-66
2023/05/07 12:07:16;;;;;;;8.52;6.45;;;;;;;;;;5073578;28;20608;-66
2023/05/07 12:09:42;;;;;;;8.82;6.63;;;;;;;;;;5070218;28;20466;-64
2023/05/07 12:12:08;;;;;;;9.60;7.75;;;;;;;;;;5070130;28;20120;-65
2023/05/07 12:14:40;;;;;;;9.80;8.00;;;;;;;;;;5072654;28;20032;-65
2023/05/07 12:17:07;;;;;;;11.57;8.10;;;;;;;;;;5071713;28;20025;-65
2023/05/07 12:19:33;;;;;;;11.23;8.27;;;;;;;;;;5072297;28;20086;-65
2023/05/07 12:21:59;;;;;;;10.05;7.40;;;;;;;;;;5060420;28;20036;-63
2023/05/07 12:24:24;;;;;;;23.10;6.97;;;;;;;;;;5052670;28;20349;-65
2023/05/07 12:26:50;;;;;;;9.25;6.72;;;;;;;;;;5051581;28;20386;-65
2023/05/07 12:29:15;;;;;;;9.15;7.43;;;;;;;;;;5050856;28;20043;-66
2023/05/07 12:31:41;;;;;;;8.95;6.93;;;;;;;;;;5052173;28;20036;-65
2023/05/07 12:34:07;;;;;;;8.68;6.78;;;;;;;;;;5054534;28;20037;-65
2023/05/07 12:36:40;;;;;;;9.57;7.30;;;;;;;;;;5057607;28;20044;-64
2023/05/07 12:39:08;;;;;;;10.00;7.20;;;;;;;;;;5065393;28;20091;-64
2023/05/07 12:41:54;;;;;;;9.07;6.53;;;;;;;;;;5055010;28;20075;-65
2023/05/07 12:44:22;;;;;;;10.35;6.50;;;;;;;;;;5054174;28;20064;-65
2023/05/07 12:46:48;;;;;;;10.40;6.80;;;;;;;;;;5054916;28;20033;-64
2023/05/07 12:49:13;;;;;;;9.23;7.78;;;;;;;;;;5054185;28;20040;-64
2023/05/07 12:51:39;;;;;;;10.80;8.07;;;;;;;;;;5059752;28;20036;-64
2023/05/07 12:54:04;;;;;;;10.32;7.75;;;;;;;;;;5062597;28;20029;-64
2023/05/07 12:56:36;;;;;;;10.57;7.45;;;;;;;;;;5054776;28;20453;-66
2023/05/07 12:59:01;;;;;;;12.57;7.63;;;;;;;;;;5053808;28;20036;-64
2023/05/07 13:01:31;;;;;;;11.40;8.10;;;;;;;;;;5054442;28;20025;-65
2023/05/07 13:04:00;;;;;;;9.50;7.75;;;;;;;;;;5054527;28;20041;-63
2023/05/07 13:06:26;;;;;;;9.75;7.20;;;;;;;;;;5057124;28;20159;-68
2023/05/07 13:08:51;;;;;;;9.02;7.32;;;;;;;;;;5056661;28;20068;-64
2023/05/07 13:11:16;;;;;;;8.82;7.22;;;;;;;;;;5073734;28;20044;-64
2023/05/07 13:13:42;;;;;;;8.68;7.03;;;;;;;;;;5073864;28;20071;-65
2023/05/07 13:16:10;;;;;;;9.45;6.80;;;;;;;;;;5072170;28;20032;-63
2023/05/07 13:18:35;;;;;;;11.18;7.30;;;;;;;;;;5070261;28;20161;-64
2023/05/07 13:21:01;;;;;;;9.82;7.88;;;;;;;;;;5072011;28;20479;-64
2023/05/07 13:23:28;;;;;;;9.82;7.40;;;;;;;;;;5072846;28;20028;-65
2023/05/07 13:25:54;;;;;;;8.88;7.10;;;;;;;;;;5074249;28;20035;-64
2023/05/07 13:28:20;;;;;;;9.45;7.65;;;;;;;;;;5071390;28;20020;-64
2023/05/07 13:30:46;;;;;;;11.05;7.88;;;;;;;;;;5073472;28;20113;-64
2023/05/07 13:33:11;;;;;;;10.73;7.78;;;;;;;;;;5071113;28;20043;-64
2023/05/07 13:35:37;;;;;;;9.68;7.30;;;;;;;;;;5073520;28;20040;-64
2023/05/07 13:38:03;;;;;;;9.85;7.68;;;;;;;;;;5073240;28;20513;-63
2023/05/07 13:40:28;;;;;;;15.25;7.57;;;;;;;;;;5073912;28;20040;-63
2023/05/07 13:42:54;;;;;;;9.68;6.85;;;;;;;;;;5070549;28;20029;-64
2023/05/07 13:45:19;;;;;;;9.75;7.25;;;;;;;;;;5072911;28;20067;-63
2023/05/07 13:47:46;;;;;;;15.15;7.47;;;;;;;;;;5073129;28;20077;-64
2023/05/07 13:50:13;;;;;;;9.38;7.07;;;;;;;;;;5072740;28;20121;-63
2023/05/07 13:52:40;;;;;;;10.75;7.88;;;;;;;;;;5070974;28;20389;-63
2023/05/07 13:55:07;;;;;;;13.45;7.85;;;;;;;;;;5070211;28;20424;-63
2023/05/07 13:57:32;;;;;;;9.48;7.50;;;;;;;;;;5073719;28;20099;-63
2023/05/07 13:59:57;;;;;;;11.25;7.88;;;;;;;;;;5073425;28;20111;-63
2023/05/07 14:02:23;;;;;;;9.52;7.47;;;;;;;;;;5052618;28;20029;-63
2023/05/07 14:04:48;;;;;;;10.40;7.30;;;;;;;;;;5056014;28;20086;-64
2023/05/07 14:07:14;;;;;;;9.75;7.03;;;;;;;;;;5072690;28;20361;-64
2023/05/07 14:09:39;;;;;;;8.63;6.68;;;;;;;;;;5056265;28;20041;-62
2023/05/07 14:12:05;;;;;;;9.88;7.10;;;;;;;;;;5065151;28;20036;-65
2023/05/07 14:14:30;;;;;;;10.32;6.47;;;;;;;;;;5093440;28;20032;-63
2023/05/07 14:16:56;;;;;;;8.45;6.57;;;;;;;;;;5077935;28;20067;-63
2023/05/07 14:19:22;;;;;;;9.23;6.88;;;;;;;;;;5072216;28;20035;-63
2023/05/07 14:21:48;;;;;;;8.45;6.15;;;;;;;;;;5059441;28;20036;-62